Time;durP1;ratioP1;P1;durP2;ratioP2;P2;SDS_P1;SDS_P2;PMS_P1;PMS_P2;Temp;Humidity;BMP_temperature;BMP_pressure;BME280_temperature;BME280_humidity;BME280_pressure;Samples;Min_cycle;Max_cycle;Signal;HPM_P1;HPM_P2
2023/01/13 00:00:33;;;;;;;13.83;2.97;;;;;;;;;;5049918;28;20456;-82
2023/01/13 00:02:59;;;;;;;6.33;2.83;;;;;;;;;;5069764;28;20502;-81
2023/01/13 00:05:27;;;;;;;4.10;1.67;;;;;;;;;;5077577;28;20455;-81
2023/01/13 00:07:53;;;;;;;13.10;2.67;;;;;;;;;;5072045;28;20486;-82
2023/01/13 00:10:21;;;;;;;11.07;3.20;;;;;;;;;;5075160;28;20502;-82
2023/01/13 00:12:47;;;;;;;7.07;2.17;;;;;;;;;;5071090;28;20454;-81
2023/01/13 00:15:13;;;;;;;8.20;2.57;;;;;;;;;;5079821;28;20806;-81
2023/01/13 00:17:40;;;;;;;11.87;3.30;;;;;;;;;;5069210;28;21050;-81
2023/01/13 00:20:07;;;;;;;9.07;2.43;;;;;;;;;;5073310;28;20443;-81
2023/01/13 00:22:33;;;;;;;4.20;2.67;;;;;;;;;;5071310;28;20478;-81
2023/01/13 00:25:00;;;;;;;4.50;2.30;;;;;;;;;;5070717;28;20459;-81
2023/01/13 00:27:28;;;;;;;10.53;3.03;;;;;;;;;;5071947;28;20478;-81
2023/01/13 00:29:54;;;;;;;7.53;2.57;;;;;;;;;;5071981;28;20483;-80
2023/01/13 00:32:21;;;;;;;9.43;2.00;;;;;;;;;;5072358;28;20471;-81
2023/01/13 00:34:47;;;;;;;5.20;2.03;;;;;;;;;;5075465;28;20451;-81
2023/01/13 00:37:13;;;;;;;6.20;2.53;;;;;;;;;;5073863;28;20514;-81
2023/01/13 00:39:40;;;;;;;12.37;2.60;;;;;;;;;;5070453;28;20456;-82
2023/01/13 00:44:51;;;;;;;6.83;1.70;;;;;;;;;;5043364;28;20424;-81
2023/01/13 00:47:17;;;;;;;14.73;2.50;;;;;;;;;;5074386;28;20470;-81
2023/01/13 00:49:43;;;;;;;12.07;1.97;;;;;;;;;;5077264;28;20489;-82
2023/01/13 00:52:10;;;;;;;8.50;2.53;;;;;;;;;;5071336;28;20486;-82
2023/01/13 00:54:36;;;;;;;12.47;2.30;;;;;;;;;;5072776;28;20459;-81
2023/01/13 00:57:03;;;;;;;5.30;1.80;;;;;;;;;;5076552;28;20485;-81
2023/01/13 00:59:29;;;;;;;12.37;2.63;;;;;;;;;;5077393;28;20471;-82
2023/01/13 01:05:00;;;;;;;5.23;2.10;;;;;;;;;;4997640;28;20509;-81
2023/01/13 01:07:26;;;;;;;9.10;2.53;;;;;;;;;;5003774;28;20497;-79
2023/01/13 01:09:53;;;;;;;11.30;3.50;;;;;;;;;;5004570;28;20586;-79
2023/01/13 01:12:19;;;;;;;7.00;3.00;;;;;;;;;;5003317;28;20998;-79
2023/01/13 01:14:45;;;;;;;5.80;2.00;;;;;;;;;;5000898;28;20470;-78
2023/01/13 01:17:12;;;;;;;13.00;3.20;;;;;;;;;;5006171;28;20572;-79
2023/01/13 01:19:39;;;;;;;12.73;3.13;;;;;;;;;;5004486;28;20478;-80
2023/01/13 01:22:07;;;;;;;7.43;2.50;;;;;;;;;;5009252;28;20470;-78
2023/01/13 01:24:34;;;;;;;11.67;3.40;;;;;;;;;;5007537;28;20736;-77
2023/01/13 01:27:00;;;;;;;18.03;4.50;;;;;;;;;;5009788;28;20478;-79
2023/01/13 01:29:26;;;;;;;10.03;2.83;;;;;;;;;;5009105;28;20470;-80
2023/01/13 01:31:54;;;;;;;6.63;2.80;;;;;;;;;;5011048;28;20502;-79
2023/01/13 01:34:21;;;;;;;13.33;3.83;;;;;;;;;;5009714;28;20466;-80
2023/01/13 01:36:47;;;;;;;11.30;3.67;;;;;;;;;;5008870;28;20473;-79
2023/01/13 01:39:15;;;;;;;6.77;3.10;;;;;;;;;;5011438;28;20463;-79
2023/01/13 01:43:57;;;;;;;9.13;3.77;;;;;;;;;;5006345;28;20508;-79
2023/01/13 01:44:47;;;;;;;13.73;4.23;;;;;;;;;;5008952;28;20548;-80
2023/01/13 01:47:18;;;;;;;15.30;3.80;;;;;;;;;;5009722;28;20482;-80
2023/01/13 01:49:45;;;;;;;13.03;4.60;;;;;;;;;;5009647;28;20493;-79
2023/01/13 01:52:13;;;;;;;17.20;4.80;;;;;;;;;;5007998;28;20974;-79
2023/01/13 01:54:44;;;;;;;14.70;4.20;;;;;;;;;;5009351;28;20470;-78
2023/01/13 01:57:13;;;;;;;13.40;4.13;;;;;;;;;;5006854;28;20486;-78
2023/01/13 01:59:40;;;;;;;19.93;5.13;;;;;;;;;;5009802;28;20465;-78
2023/01/13 02:02:07;;;;;;;12.37;4.67;;;;;;;;;;5007709;28;20482;-84
2023/01/13 02:04:34;;;;;;;12.57;3.80;;;;;;;;;;5008335;28;20541;-78
2023/01/13 02:07:01;;;;;;;24.73;4.30;;;;;;;;;;5008208;28;20478;-78
2023/01/13 02:09:28;;;;;;;13.93;3.97;;;;;;;;;;5007322;28;20484;-79
2023/01/13 02:14:42;;;;;;;17.63;5.10;;;;;;;;;;5003635;28;20462;-78
2023/01/13 02:17:27;;;;;;;15.50;4.20;;;;;;;;;;5006975;28;20482;-79
2023/01/13 02:20:21;;;;;;;18.10;3.87;;;;;;;;;;5007674;28;20466;-79
2023/01/13 02:23:00;;;;;;;18.43;3.27;;;;;;;;;;5007980;28;20475;-79
2023/01/13 02:25:54;;;;;;;13.03;4.90;;;;;;;;;;5008604;28;20458;-78
2023/01/13 02:28:36;;;;;;;14.33;5.80;;;;;;;;;;5010383;28;20938;-79
2023/01/13 02:34:00;;;;;;;25.93;6.10;;;;;;;;;;5010278;28;20460;-79
2023/01/13 02:36:30;;;;;;;15.57;4.57;;;;;;;;;;5006940;28;20480;-80
2023/01/13 02:38:57;;;;;;;30.57;5.70;;;;;;;;;;5011350;28;21007;-80
2023/01/13 02:44:12;;;;;;;21.03;4.50;;;;;;;;;;5011302;28;20540;-79
2023/01/13 02:46:43;;;;;;;14.77;4.70;;;;;;;;;;5011644;28;20469;-80
2023/01/13 02:49:12;;;;;;;22.23;4.70;;;;;;;;;;5009780;28;20465;-79
2023/01/13 02:51:39;;;;;;;25.03;5.40;;;;;;;;;;5009821;28;20483;-79
2023/01/13 02:54:07;;;;;;;17.90;3.90;;;;;;;;;;5009739;28;20481;-79
2023/01/13 02:56:35;;;;;;;28.30;6.43;;;;;;;;;;5009978;28;20482;-79
2023/01/13 02:59:04;;;;;;;22.17;7.00;;;;;;;;;;5010277;28;20465;-79
2023/01/13 03:01:30;;;;;;;22.10;5.30;;;;;;;;;;5011295;28;20485;-79
2023/01/13 03:03:58;;;;;;;37.00;6.70;;;;;;;;;;5009261;28;20493;-80
2023/01/13 03:06:42;;;;;;;14.33;3.70;;;;;;;;;;5009164;28;20469;-80
2023/01/13 03:09:12;;;;;;;27.37;4.70;;;;;;;;;;5006508;28;20461;-77
2023/01/13 03:11:45;;;;;;;15.73;3.77;;;;;;;;;;5004480;28;21033;-78
2023/01/13 03:14:23;;;;;;;19.07;4.63;;;;;;;;;;5007078;28;20489;-77
2023/01/13 03:16:57;;;;;;;15.90;3.90;;;;;;;;;;5012552;28;20470;-80
2023/01/13 03:19:35;;;;;;;20.57;4.07;;;;;;;;;;5008919;28;20472;-79
2023/01/13 03:22:09;;;;;;;17.80;5.10;;;;;;;;;;5006285;28;20862;-81
2023/01/13 03:24:38;;;;;;;24.33;4.53;;;;;;;;;;5008540;28;21085;-79
2023/01/13 03:27:06;;;;;;;12.60;3.80;;;;;;;;;;5013101;28;20549;-79
2023/01/13 03:29:35;;;;;;;14.83;3.87;;;;;;;;;;5007680;28;20473;-79
2023/01/13 03:32:04;;;;;;;16.93;4.10;;;;;;;;;;5007127;28;20473;-82
2023/01/13 03:34:34;;;;;;;18.63;4.30;;;;;;;;;;5008118;28;20459;-79
2023/01/13 03:37:03;;;;;;;18.90;4.40;;;;;;;;;;5007681;28;20484;-79
2023/01/13 03:39:33;;;;;;;19.87;4.73;;;;;;;;;;5008085;28;20478;-79
2023/01/13 03:42:01;;;;;;;17.03;4.73;;;;;;;;;;5005879;28;20509;-79
2023/01/13 03:44:31;;;;;;;19.90;4.17;;;;;;;;;;5008049;28;20467;-80
2023/01/13 03:47:01;;;;;;;19.80;4.63;;;;;;;;;;5008116;28;20509;-78
2023/01/13 03:49:29;;;;;;;25.07;4.97;;;;;;;;;;5008355;28;20470;-80
2023/01/13 03:51:58;;;;;;;20.33;4.80;;;;;;;;;;5007545;28;20476;-80
2023/01/13 03:54:28;;;;;;;17.13;4.90;;;;;;;;;;5008787;28;20481;-79
2023/01/13 03:56:56;;;;;;;12.37;4.47;;;;;;;;;;5007502;28;20490;-80
2023/01/13 03:59:23;;;;;;;15.97;5.80;;;;;;;;;;5007807;28;20445;-80
2023/01/13 04:01:53;;;;;;;15.63;4.83;;;;;;;;;;5007479;28;20470;-80
2023/01/13 04:04:21;;;;;;;22.23;5.10;;;;;;;;;;5007304;28;20892;-78
2023/01/13 04:06:50;;;;;;;20.63;5.30;;;;;;;;;;5006853;28;20553;-80
2023/01/13 04:09:22;;;;;;;19.50;4.60;;;;;;;;;;5008939;28;20946;-79
2023/01/13 04:11:51;;;;;;;20.93;4.17;;;;;;;;;;5010270;28;20482;-80
2023/01/13 04:14:19;;;;;;;12.90;4.40;;;;;;;;;;5006757;28;20462;-80
2023/01/13 04:16:45;;;;;;;36.13;6.30;;;;;;;;;;5005650;28;20486;-78
2023/01/13 04:19:11;;;;;;;29.03;5.30;;;;;;;;;;5007092;28;20445;-82
2023/01/13 04:21:38;;;;;;;18.13;4.90;;;;;;;;;;5008315;28;20500;-80
2023/01/13 04:24:05;;;;;;;41.30;7.30;;;;;;;;;;5006751;28;20569;-80
2023/01/13 04:26:32;;;;;;;23.60;5.50;;;;;;;;;;5006212;28;21084;-80
2023/01/13 04:28:59;;;;;;;14.60;3.70;;;;;;;;;;5005881;28;20462;-80
2023/01/13 04:31:26;;;;;;;23.07;5.10;;;;;;;;;;5008882;28;20465;-80
2023/01/13 04:33:52;;;;;;;22.30;4.20;;;;;;;;;;5009765;28;20466;-79
2023/01/13 04:36:23;;;;;;;16.10;5.77;;;;;;;;;;5007850;28;20478;-80
2023/01/13 04:38:50;;;;;;;17.37;5.20;;;;;;;;;;5010789;28;20858;-79
2023/01/13 04:41:16;;;;;;;23.83;4.90;;;;;;;;;;5009423;28;20477;-79
2023/01/13 04:43:44;;;;;;;14.37;4.57;;;;;;;;;;5010648;28;20481;-79
2023/01/13 04:46:12;;;;;;;24.57;4.50;;;;;;;;;;5009009;28;20498;-80
2023/01/13 04:48:38;;;;;;;19.07;4.50;;;;;;;;;;5015855;28;20447;-79
2023/01/13 04:51:04;;;;;;;31.77;4.80;;;;;;;;;;5007847;28;20457;-80
2023/01/13 04:53:31;;;;;;;18.07;4.33;;;;;;;;;;5010225;28;20469;-79
2023/01/13 04:55:59;;;;;;;14.50;4.17;;;;;;;;;;5007422;28;20472;-80
2023/01/13 04:58:25;;;;;;;18.43;4.37;;;;;;;;;;5008134;28;20995;-80
2023/01/13 05:00:53;;;;;;;21.40;6.37;;;;;;;;;;5009279;28;20836;-80
2023/01/13 05:03:20;;;;;;;23.00;5.43;;;;;;;;;;5011150;28;20489;-80
2023/01/13 05:05:50;;;;;;;21.57;6.57;;;;;;;;;;5008591;28;20477;-79
2023/01/13 05:08:17;;;;;;;20.13;7.10;;;;;;;;;;5009211;28;20465;-79
2023/01/13 05:10:43;;;;;;;21.70;5.40;;;;;;;;;;5008128;28;20958;-79
2023/01/13 05:18:39;;;;;;;21.93;6.33;;;;;;;;;;5010471;28;20441;-80
2023/01/13 05:25:20;;;;;;;25.47;6.90;;;;;;;;;;5007899;28;20458;-78
2023/01/13 05:26:37;;;;;;;13.90;5.03;;;;;;;;;;5006306;28;20484;-78
2023/01/13 05:29:04;;;;;;;24.50;5.70;;;;;;;;;;5007740;28;20492;-80
2023/01/13 05:31:33;;;;;;;19.50;5.33;;;;;;;;;;5001095;28;20493;-81
2023/01/13 05:34:00;;;;;;;27.37;5.50;;;;;;;;;;5006234;28;20876;-81
2023/01/13 05:36:26;;;;;;;21.37;6.60;;;;;;;;;;5009664;28;20469;-79
2023/01/13 05:38:52;;;;;;;16.93;4.80;;;;;;;;;;5008175;28;20460;-80
2023/01/13 05:44:01;;;;;;;24.87;5.27;;;;;;;;;;4984380;28;20462;-78
2023/01/13 05:46:28;;;;;;;17.20;4.93;;;;;;;;;;5006408;28;20485;-80
2023/01/13 05:48:55;;;;;;;27.43;7.37;;;;;;;;;;5003218;28;21231;-80
2023/01/13 05:51:25;;;;;;;24.47;5.90;;;;;;;;;;5007376;28;20481;-80
2023/01/13 05:53:51;;;;;;;13.13;4.30;;;;;;;;;;5006977;28;21098;-80
2023/01/13 05:56:17;;;;;;;15.00;6.00;;;;;;;;;;5006825;28;20477;-80
2023/01/13 05:58:44;;;;;;;15.87;4.73;;;;;;;;;;5006084;28;20462;-82
2023/01/13 06:01:16;;;;;;;23.37;5.77;;;;;;;;;;5006957;28;20501;-80
2023/01/13 06:03:42;;;;;;;24.50;4.93;;;;;;;;;;5006114;28;20490;-79
2023/01/13 06:06:10;;;;;;;19.00;5.70;;;;;;;;;;5005184;28;20477;-80
2023/01/13 06:08:36;;;;;;;29.23;5.10;;;;;;;;;;5005518;28;20458;-80
2023/01/13 06:11:03;;;;;;;21.33;5.40;;;;;;;;;;5003800;28;20485;-80
2023/01/13 06:13:29;;;;;;;23.90;6.20;;;;;;;;;;5002896;28;20478;-80
2023/01/13 06:15:57;;;;;;;19.70;4.97;;;;;;;;;;5003917;28;20458;-80
2023/01/13 06:18:23;;;;;;;26.30;5.03;;;;;;;;;;5007875;28;20961;-79
2023/01/13 06:20:51;;;;;;;27.13;6.43;;;;;;;;;;5007539;28;20472;-79
2023/01/13 06:23:19;;;;;;;24.40;6.47;;;;;;;;;;5007665;28;20482;-79
2023/01/13 06:25:47;;;;;;;21.87;7.00;;;;;;;;;;5007555;28;20471;-80
2023/01/13 06:28:13;;;;;;;21.47;5.17;;;;;;;;;;5006593;28;20474;-79
2023/01/13 06:30:43;;;;;;;28.33;5.13;;;;;;;;;;5007481;28;20480;-79
2023/01/13 06:33:13;;;;;;;24.37;6.17;;;;;;;;;;5006483;28;20482;-79
2023/01/13 06:35:41;;;;;;;13.40;5.07;;;;;;;;;;5006253;28;20461;-79
2023/01/13 06:38:13;;;;;;;15.33;5.00;;;;;;;;;;4993688;28;20490;-81
2023/01/13 06:40:42;;;;;;;20.57;5.23;;;;;;;;;;5004323;28;20470;-80
2023/01/13 06:43:16;;;;;;;18.00;5.60;;;;;;;;;;5001140;28;20485;-80
2023/01/13 06:45:48;;;;;;;20.83;5.43;;;;;;;;;;5002476;28;20451;-80
2023/01/13 06:48:16;;;;;;;21.53;5.00;;;;;;;;;;4986085;28;20487;-80
2023/01/13 06:50:42;;;;;;;25.83;5.10;;;;;;;;;;4985728;28;20485;-81
2023/01/13 06:53:09;;;;;;;20.67;4.97;;;;;;;;;;5003192;28;20559;-80
2023/01/13 06:55:35;;;;;;;18.20;5.20;;;;;;;;;;5002101;28;21041;-81
2023/01/13 06:58:03;;;;;;;27.70;6.60;;;;;;;;;;5002693;28;20494;-80
2023/01/13 07:00:31;;;;;;;23.20;4.33;;;;;;;;;;5001696;28;20489;-80
2023/01/13 07:03:05;;;;;;;18.47;5.63;;;;;;;;;;5002388;28;22198;-80
2023/01/13 07:05:31;;;;;;;17.97;5.43;;;;;;;;;;5001988;28;21013;-80
2023/01/13 07:07:58;;;;;;;18.67;4.70;;;;;;;;;;5002895;28;20465;-80
2023/01/13 07:10:24;;;;;;;26.70;7.23;;;;;;;;;;5000465;28;20867;-81
2023/01/13 07:15:36;;;;;;;22.33;5.60;;;;;;;;;;5002510;28;20541;-81
2023/01/13 07:18:02;;;;;;;25.70;6.40;;;;;;;;;;5004543;28;20445;-81
2023/01/13 07:20:29;;;;;;;19.23;4.60;;;;;;;;;;4999266;28;20474;-81
2023/01/13 07:22:55;;;;;;;18.83;4.77;;;;;;;;;;5001887;28;20493;-80
2023/01/13 07:25:22;;;;;;;20.40;4.83;;;;;;;;;;5001593;28;21094;-80
2023/01/13 07:27:48;;;;;;;28.50;5.30;;;;;;;;;;5004961;28;20462;-80
2023/01/13 07:30:15;;;;;;;22.20;5.13;;;;;;;;;;5004667;28;20477;-80
2023/01/13 07:32:43;;;;;;;28.70;5.73;;;;;;;;;;5002258;28;20485;-81
2023/01/13 07:35:09;;;;;;;12.13;3.63;;;;;;;;;;5003811;28;22195;-81
2023/01/13 07:37:36;;;;;;;15.13;4.67;;;;;;;;;;5001973;28;20461;-80
2023/01/13 07:40:04;;;;;;;18.67;4.20;;;;;;;;;;5001827;28;21077;-80
2023/01/13 07:45:16;;;;;;;17.43;3.47;;;;;;;;;;5001988;28;20468;-81
2023/01/13 07:47:43;;;;;;;11.23;4.37;;;;;;;;;;5002461;28;20469;-80
2023/01/13 07:50:10;;;;;;;21.03;4.73;;;;;;;;;;4999936;28;20478;-80
2023/01/13 07:52:36;;;;;;;14.63;3.43;;;;;;;;;;5003938;28;20860;-80
2023/01/13 07:55:03;;;;;;;12.47;3.63;;;;;;;;;;5003954;28;20478;-80
2023/01/13 07:57:29;;;;;;;9.90;3.77;;;;;;;;;;5002894;28;20462;-82
2023/01/13 07:59:56;;;;;;;23.50;3.73;;;;;;;;;;5003490;28;20477;-82
2023/01/13 08:02:22;;;;;;;17.90;4.57;;;;;;;;;;4999650;28;20478;-80
2023/01/13 08:04:50;;;;;;;10.50;4.20;;;;;;;;;;5007459;28;20474;-80
2023/01/13 08:07:16;;;;;;;15.77;3.93;;;;;;;;;;5007479;28;20828;-80
2023/01/13 08:09:42;;;;;;;13.60;3.70;;;;;;;;;;5005740;28;20481;-82
2023/01/13 08:15:01;;;;;;;9.57;3.20;;;;;;;;;;4981120;28;20469;-80
2023/01/13 08:17:27;;;;;;;14.40;3.70;;;;;;;;;;5004329;28;20494;-81
2023/01/13 08:19:55;;;;;;;12.73;3.80;;;;;;;;;;5004532;28;20501;-81
2023/01/13 08:22:21;;;;;;;11.60;3.47;;;;;;;;;;5004849;28;21012;-81
2023/01/13 08:24:48;;;;;;;9.87;3.80;;;;;;;;;;5005107;28;20470;-80
2023/01/13 08:27:14;;;;;;;15.67;3.30;;;;;;;;;;5005810;28;20458;-80
2023/01/13 08:29:40;;;;;;;17.10;3.90;;;;;;;;;;5018265;28;20486;-80
2023/01/13 08:32:07;;;;;;;10.50;2.83;;;;;;;;;;5005377;28;21097;-80
2023/01/13 08:34:33;;;;;;;10.10;3.40;;;;;;;;;;5012940;28;20473;-80
2023/01/13 08:37:01;;;;;;;12.77;2.67;;;;;;;;;;5003867;28;20460;-80
2023/01/13 08:39:27;;;;;;;7.83;3.17;;;;;;;;;;5005768;28;20472;-80
2023/01/13 08:41:57;;;;;;;14.33;2.63;;;;;;;;;;5005158;28;20480;-80
2023/01/13 08:44:24;;;;;;;10.23;2.97;;;;;;;;;;5005329;28;20461;-80
2023/01/13 08:46:50;;;;;;;16.50;3.23;;;;;;;;;;5005083;28;20490;-80
2023/01/13 08:49:17;;;;;;;6.77;2.17;;;;;;;;;;5006711;28;20453;-80
2023/01/13 08:51:43;;;;;;;18.70;3.20;;;;;;;;;;5003289;28;20493;-81
2023/01/13 08:54:11;;;;;;;24.00;3.10;;;;;;;;;;5004082;28;20493;-80
2023/01/13 08:56:37;;;;;;;8.63;2.03;;;;;;;;;;5004095;28;20989;-80
2023/01/13 08:59:04;;;;;;;16.57;3.13;;;;;;;;;;5004816;28;20477;-80
2023/01/13 09:01:32;;;;;;;6.93;2.73;;;;;;;;;;5004516;28;20568;-80
2023/01/13 09:03:59;;;;;;;18.13;3.83;;;;;;;;;;5004713;28;20993;-80
2023/01/13 09:06:25;;;;;;;13.60;2.77;;;;;;;;;;5005644;28;20493;-80
2023/01/13 09:08:51;;;;;;;11.70;3.30;;;;;;;;;;5007407;28;20851;-80
2023/01/13 09:14:06;;;;;;;9.73;3.10;;;;;;;;;;4987458;28;21070;-80
2023/01/13 09:16:32;;;;;;;20.30;3.47;;;;;;;;;;5003491;28;20477;-80
2023/01/13 09:18:59;;;;;;;7.90;3.70;;;;;;;;;;5005650;28;20858;-80
2023/01/13 09:21:26;;;;;;;13.10;3.07;;;;;;;;;;5003189;28;20474;-80
2023/01/13 09:23:52;;;;;;;12.07;2.43;;;;;;;;;;5004843;28;20490;-82
2023/01/13 09:26:21;;;;;;;7.07;2.87;;;;;;;;;;5004607;28;20501;-80
2023/01/13 09:28:48;;;;;;;12.80;2.73;;;;;;;;;;5004897;28;20999;-80
2023/01/13 09:31:15;;;;;;;11.93;3.10;;;;;;;;;;5003767;28;20475;-80
2023/01/13 09:36:25;;;;;;;12.13;3.60;;;;;;;;;;5004553;28;20485;-80
2023/01/13 09:38:51;;;;;;;12.40;3.10;;;;;;;;;;5004884;28;20835;-80
2023/01/13 09:44:02;;;;;;;8.60;2.87;;;;;;;;;;5009284;28;20508;-80
2023/01/13 09:46:46;;;;;;;9.10;2.60;;;;;;;;;;5003225;28;20563;-85
2023/01/13 09:49:19;;;;;;;14.80;3.43;;;;;;;;;;5004161;28;20450;-81
2023/01/13 09:51:49;;;;;;;10.57;3.83;;;;;;;;;;5002365;28;20484;-83
2023/01/13 09:54:21;;;;;;;13.93;4.10;;;;;;;;;;5002144;28;20490;-80
2023/01/13 09:56:47;;;;;;;9.63;3.33;;;;;;;;;;5000898;28;20466;-82
2023/01/13 09:59:17;;;;;;;14.37;4.60;;;;;;;;;;5002514;28;20465;-80
2023/01/13 10:01:47;;;;;;;14.13;3.00;;;;;;;;;;5006344;28;20466;-80
2023/01/13 10:04:15;;;;;;;26.93;4.53;;;;;;;;;;5002999;28;20840;-80
2023/01/13 10:06:44;;;;;;;9.60;3.97;;;;;;;;;;5003082;28;20481;-80
2023/01/13 10:09:14;;;;;;;13.40;4.93;;;;;;;;;;5003893;28;20450;-81
2023/01/13 10:14:32;;;;;;;17.23;5.17;;;;;;;;;;5002297;28;20561;-80
2023/01/13 10:17:03;;;;;;;12.17;3.60;;;;;;;;;;5003387;28;20477;-80
2023/01/13 10:19:31;;;;;;;14.80;5.60;;;;;;;;;;5002169;28;20465;-80
2023/01/13 10:22:15;;;;;;;18.67;3.63;;;;;;;;;;5001623;28;20465;-81
2023/01/13 10:24:58;;;;;;;18.53;3.93;;;;;;;;;;5003764;28;20481;-80
2023/01/13 10:27:28;;;;;;;9.83;3.40;;;;;;;;;;5002508;28;20465;-82
2023/01/13 10:29:56;;;;;;;12.00;3.93;;;;;;;;;;5002631;28;20495;-80
2023/01/13 10:32:22;;;;;;;7.03;2.60;;;;;;;;;;5003962;28;20486;-80
2023/01/13 10:34:55;;;;;;;8.90;2.97;;;;;;;;;;5001756;28;20485;-80
2023/01/13 10:37:22;;;;;;;12.37;2.50;;;;;;;;;;5003992;28;20493;-81
2023/01/13 10:39:49;;;;;;;14.03;3.50;;;;;;;;;;5001897;28;20484;-80
2023/01/13 10:42:17;;;;;;;7.17;3.10;;;;;;;;;;5004636;28;20481;-80
2023/01/13 10:44:49;;;;;;;15.93;3.80;;;;;;;;;;5002337;28;20906;-80
2023/01/13 10:47:23;;;;;;;16.57;3.07;;;;;;;;;;5003477;28;20474;-80
2023/01/13 10:49:59;;;;;;;6.53;2.10;;;;;;;;;;5002076;28;21034;-80
2023/01/13 10:52:27;;;;;;;12.37;4.07;;;;;;;;;;5001702;28;20512;-80
2023/01/13 10:54:54;;;;;;;21.73;3.43;;;;;;;;;;5001775;28;20478;-80
2023/01/13 10:57:22;;;;;;;10.30;3.00;;;;;;;;;;5003142;28;20978;-82
2023/01/13 10:59:51;;;;;;;12.60;3.10;;;;;;;;;;5003266;28;20477;-81
2023/01/13 11:05:22;;;;;;;17.67;3.53;;;;;;;;;;5088897;27;20572;-79
2023/01/13 11:07:51;;;;;;;15.77;4.73;;;;;;;;;;5059267;28;21003;-80
2023/01/13 11:10:19;;;;;;;16.00;3.60;;;;;;;;;;5066278;28;20466;-82
2023/01/13 11:12:50;;;;;;;8.93;3.63;;;;;;;;;;5076771;28;20479;-82
2023/01/13 11:15:18;;;;;;;12.27;3.47;;;;;;;;;;5067242;28;20498;-80
2023/01/13 11:17:48;;;;;;;9.37;3.33;;;;;;;;;;5058643;28;20923;-80
2023/01/13 11:20:18;;;;;;;12.90;3.80;;;;;;;;;;5057250;28;20484;-80
2023/01/13 11:22:46;;;;;;;13.80;4.43;;;;;;;;;;5057220;28;21007;-81
2023/01/13 11:25:16;;;;;;;14.90;4.57;;;;;;;;;;5056846;28;20474;-81
2023/01/13 11:27:46;;;;;;;15.57;3.90;;;;;;;;;;5056696;28;20969;-81
2023/01/13 11:30:21;;;;;;;12.87;4.10;;;;;;;;;;5056951;28;20498;-81
2023/01/13 11:32:53;;;;;;;17.03;3.40;;;;;;;;;;5056302;28;20482;-80
2023/01/13 11:35:21;;;;;;;12.80;3.90;;;;;;;;;;5057663;28;20475;-81
2023/01/13 11:37:51;;;;;;;20.13;3.70;;;;;;;;;;5055180;28;20467;-81
2023/01/13 11:40:24;;;;;;;15.93;4.67;;;;;;;;;;5056318;28;20479;-81
2023/01/13 11:42:56;;;;;;;11.70;3.53;;;;;;;;;;5055595;28;20487;-81
2023/01/13 11:45:27;;;;;;;14.70;4.40;;;;;;;;;;5055174;28;20475;-81
2023/01/13 11:47:56;;;;;;;9.87;3.30;;;;;;;;;;5055208;28;20472;-81
2023/01/13 11:50:28;;;;;;;23.17;4.40;;;;;;;;;;5053874;28;20480;-79
2023/01/13 11:53:04;;;;;;;12.00;3.90;;;;;;;;;;5057734;28;20510;-81
2023/01/13 11:55:35;;;;;;;19.37;4.03;;;;;;;;;;5055826;28;20475;-81
2023/01/13 11:58:09;;;;;;;12.87;3.70;;;;;;;;;;5056114;28;20470;-81
2023/01/13 12:00:41;;;;;;;10.20;3.73;;;;;;;;;;5053101;28;20840;-81
2023/01/13 12:03:18;;;;;;;6.43;2.57;;;;;;;;;;5053554;28;20483;-80
2023/01/13 12:05:57;;;;;;;10.00;3.77;;;;;;;;;;5058117;28;20472;-81
2023/01/13 12:08:32;;;;;;;8.90;3.20;;;;;;;;;;5057244;28;20453;-80
2023/01/13 12:11:01;;;;;;;9.00;3.30;;;;;;;;;;5055842;28;20483;-80
2023/01/13 12:13:33;;;;;;;9.30;2.53;;;;;;;;;;5055119;28;20471;-80
2023/01/13 12:16:09;;;;;;;11.73;3.10;;;;;;;;;;5045825;28;20484;-80
2023/01/13 12:18:40;;;;;;;12.63;3.33;;;;;;;;;;5042569;28;20468;-80
2023/01/13 12:21:13;;;;;;;19.23;4.50;;;;;;;;;;5042369;28;20483;-80
2023/01/13 12:23:47;;;;;;;14.17;4.20;;;;;;;;;;5040270;28;20488;-81
2023/01/13 12:26:14;;;;;;;9.03;3.40;;;;;;;;;;5042746;28;21122;-81
2023/01/13 12:28:46;;;;;;;11.60;4.10;;;;;;;;;;5045546;28;20456;-80
2023/01/13 12:31:17;;;;;;;13.53;3.20;;;;;;;;;;5043036;28;20479;-80
2023/01/13 12:33:47;;;;;;;15.20;4.00;;;;;;;;;;5043451;28;20492;-80
2023/01/13 12:36:18;;;;;;;9.73;3.27;;;;;;;;;;5042831;28;20468;-80
2023/01/13 12:38:47;;;;;;;16.70;3.27;;;;;;;;;;5042390;28;20457;-80
2023/01/13 12:41:22;;;;;;;15.87;3.13;;;;;;;;;;5040770;28;20480;-80
2023/01/13 12:46:52;;;;;;;21.93;4.10;;;;;;;;;;5041120;28;20491;-80
2023/01/13 12:49:20;;;;;;;15.33;4.53;;;;;;;;;;5042893;28;20465;-80
2023/01/13 12:52:14;;;;;;;11.43;3.30;;;;;;;;;;5043473;28;20465;-80
2023/01/13 12:54:59;;;;;;;10.13;3.80;;;;;;;;;;5006540;28;21011;-80
2023/01/13 12:57:27;;;;;;;19.30;4.60;;;;;;;;;;5043470;28;20447;-79
2023/01/13 13:00:13;;;;;;;12.97;4.20;;;;;;;;;;5044746;28;20472;-80
2023/01/13 13:02:39;;;;;;;12.80;3.63;;;;;;;;;;5040129;28;20492;-80
2023/01/13 13:05:24;;;;;;;13.30;3.47;;;;;;;;;;5040447;28;20472;-80
2023/01/13 13:07:52;;;;;;;15.97;4.07;;;;;;;;;;5041645;28;20464;-80
2023/01/13 13:10:23;;;;;;;19.60;3.67;;;;;;;;;;5041063;28;20473;-80
2023/01/13 13:13:16;;;;;;;7.50;3.40;;;;;;;;;;5042841;28;20464;-80
2023/01/13 13:15:44;;;;;;;9.30;2.73;;;;;;;;;;5043458;28;20479;-81
2023/01/13 13:18:23;;;;;;;10.30;3.40;;;;;;;;;;5042175;28;20463;-81
2023/01/13 13:20:57;;;;;;;12.23;3.80;;;;;;;;;;5039520;28;20904;-81
2023/01/13 13:23:53;;;;;;;12.03;4.40;;;;;;;;;;5039298;28;20483;-82
2023/01/13 13:26:35;;;;;;;8.90;2.67;;;;;;;;;;5040757;28;20535;-81
2023/01/13 13:29:25;;;;;;;7.53;3.40;;;;;;;;;;5038958;28;20468;-81
2023/01/13 13:31:58;;;;;;;11.70;3.60;;;;;;;;;;5022069;28;20480;-81
2023/01/13 13:34:30;;;;;;;10.80;3.50;;;;;;;;;;5040581;28;20460;-81
2023/01/13 13:37:08;;;;;;;10.03;4.10;;;;;;;;;;5039777;28;20463;-81
2023/01/13 13:48:17;;;;;;;18.40;3.70;;;;;;;;;;5034883;28;20571;-81
2023/01/13 13:50:49;;;;;;;12.03;3.00;;;;;;;;;;5039573;28;20475;-80
2023/01/13 13:53:17;;;;;;;11.70;4.00;;;;;;;;;;5041203;28;20887;-81
2023/01/13 13:55:52;;;;;;;13.17;3.20;;;;;;;;;;5038237;28;20588;-80
2023/01/13 13:58:18;;;;;;;11.73;4.00;;;;;;;;;;5041319;28;20521;-80
2023/01/13 14:00:47;;;;;;;13.43;4.33;;;;;;;;;;5039465;28;20488;-80
2023/01/13 14:03:21;;;;;;;26.53;6.20;;;;;;;;;;5039577;28;20510;-80
2023/01/13 14:05:53;;;;;;;13.83;3.50;;;;;;;;;;5040185;28;20844;-79
2023/01/13 14:08:21;;;;;;;14.07;5.07;;;;;;;;;;5037717;28;20464;-81
2023/01/13 14:10:47;;;;;;;11.70;3.00;;;;;;;;;;5039150;28;20472;-80
2023/01/13 14:13:15;;;;;;;12.33;3.07;;;;;;;;;;5040177;28;20479;-81
2023/01/13 14:15:41;;;;;;;10.67;3.70;;;;;;;;;;5037329;28;20476;-80
2023/01/13 14:18:12;;;;;;;16.83;3.53;;;;;;;;;;5040233;28;20445;-80
2023/01/13 14:20:40;;;;;;;16.30;3.43;;;;;;;;;;5039791;28;20469;-81
2023/01/13 14:23:15;;;;;;;12.57;2.63;;;;;;;;;;5039421;28;20485;-81
2023/01/13 14:25:46;;;;;;;15.87;3.40;;;;;;;;;;5038876;28;20479;-81
2023/01/13 14:28:24;;;;;;;8.70;3.23;;;;;;;;;;5040237;28;21145;-80
2023/01/13 14:30:51;;;;;;;8.97;2.97;;;;;;;;;;5034237;28;20478;-81
2023/01/13 14:33:18;;;;;;;9.37;3.57;;;;;;;;;;5038222;28;20469;-81
2023/01/13 14:36:04;;;;;;;13.37;3.80;;;;;;;;;;5038091;28;20476;-80
2023/01/13 14:38:32;;;;;;;11.27;2.60;;;;;;;;;;5040201;28;20456;-80
2023/01/13 14:41:09;;;;;;;8.20;3.33;;;;;;;;;;5038490;28;20475;-81
2023/01/13 14:43:35;;;;;;;11.97;4.50;;;;;;;;;;5037288;28;20871;-80
2023/01/13 14:46:02;;;;;;;14.93;3.20;;;;;;;;;;5039697;28;20488;-81
2023/01/13 14:48:34;;;;;;;12.53;3.50;;;;;;;;;;5038876;28;20470;-81
2023/01/13 14:51:01;;;;;;;7.60;1.83;;;;;;;;;;5038433;28;20468;-81
2023/01/13 14:53:30;;;;;;;7.50;1.40;;;;;;;;;;5040111;28;20489;-81
2023/01/13 14:55:58;;;;;;;6.97;1.57;;;;;;;;;;5035907;28;20476;-81
2023/01/13 14:58:27;;;;;;;3.30;1.80;;;;;;;;;;5039667;28;20440;-81
2023/01/13 15:01:13;;;;;;;3.47;1.70;;;;;;;;;;5038051;28;20480;-80
2023/01/13 15:03:40;;;;;;;9.67;2.73;;;;;;;;;;5038602;28;20491;-81
2023/01/13 15:06:21;;;;;;;13.20;3.90;;;;;;;;;;5039499;28;20487;-81
2023/01/13 15:08:47;;;;;;;8.00;2.53;;;;;;;;;;5039791;28;20467;-82
2023/01/13 15:11:34;;;;;;;16.53;3.70;;;;;;;;;;5040236;28;20483;-81
2023/01/13 15:14:02;;;;;;;16.80;3.20;;;;;;;;;;5038325;28;20483;-81
2023/01/13 15:16:30;;;;;;;11.07;3.20;;;;;;;;;;5039022;28;20484;-81
2023/01/13 15:18:57;;;;;;;12.33;3.93;;;;;;;;;;5039894;28;20816;-81
2023/01/13 15:21:25;;;;;;;7.63;2.93;;;;;;;;;;5037314;28;21052;-81
2023/01/13 15:23:52;;;;;;;10.93;2.80;;;;;;;;;;5039515;28;20483;-80
2023/01/13 15:26:20;;;;;;;12.07;3.43;;;;;;;;;;5037522;28;20479;-81
2023/01/13 15:28:47;;;;;;;12.93;4.30;;;;;;;;;;5040129;28;20464;-81
2023/01/13 15:31:15;;;;;;;14.37;3.60;;;;;;;;;;5037183;28;20483;-81
2023/01/13 15:33:43;;;;;;;5.07;2.50;;;;;;;;;;5038358;28;20487;-81
2023/01/13 15:36:18;;;;;;;15.40;3.70;;;;;;;;;;5038898;28;21114;-80
2023/01/13 15:38:45;;;;;;;13.40;3.20;;;;;;;;;;5036747;28;20811;-80
2023/01/13 15:41:11;;;;;;;13.07;3.23;;;;;;;;;;5036975;28;20479;-81
2023/01/13 15:46:39;;;;;;;8.50;3.57;;;;;;;;;;5039321;28;20523;-81
2023/01/13 15:49:11;;;;;;;12.60;3.97;;;;;;;;;;5038415;28;21017;-81